Time;durP1;ratioP1;P1;durP2;ratioP2;P2;SDS_P1;SDS_P2;PMS_P1;PMS_P2;Temp;Humidity;BMP_temperature;BMP_pressure;BME280_temperature;BME280_humidity;BME280_pressure;Samples;Min_cycle;Max_cycle;Signal;HPM_P1;HPM_P2
2023/03/30 00:02:12;;;;;;;26.63;20.53;;;;;;;;;;5095797;28;20052;-74
2023/03/30 00:04:41;;;;;;;23.33;19.30;;;;;;;;;;5100528;28;20122;-72
2023/03/30 00:07:08;;;;;;;28.33;19.23;;;;;;;;;;5095615;28;20059;-70
2023/03/30 00:09:42;;;;;;;26.70;20.57;;;;;;;;;;5109186;28;20481;-70
2023/03/30 00:12:09;;;;;;;26.73;20.27;;;;;;;;;;5104267;28;20043;-70
2023/03/30 00:14:36;;;;;;;28.07;20.10;;;;;;;;;;5109782;27;20048;-71
2023/03/30 00:17:06;;;;;;;28.73;20.53;;;;;;;;;;5093799;27;20051;-70
2023/03/30 00:19:36;;;;;;;25.00;19.23;;;;;;;;;;5085683;28;20568;-70
2023/03/30 00:22:02;;;;;;;26.90;18.30;;;;;;;;;;5089640;28;20122;-70
2023/03/30 00:24:28;;;;;;;24.90;17.87;;;;;;;;;;5108469;28;20039;-71
2023/03/30 00:26:54;;;;;;;24.57;18.03;;;;;;;;;;5073269;28;20055;-73
2023/03/30 00:29:20;;;;;;;22.30;16.87;;;;;;;;;;5094724;28;20126;-71
2023/03/30 00:31:46;;;;;;;25.07;16.10;;;;;;;;;;5109418;28;20048;-71
2023/03/30 00:34:12;;;;;;;22.07;16.30;;;;;;;;;;5102936;28;20051;-70
2023/03/30 00:36:38;;;;;;;29.50;16.30;;;;;;;;;;5092279;28;20075;-70
2023/03/30 00:39:05;;;;;;;23.93;15.53;;;;;;;;;;5109137;28;20043;-70
2023/03/30 00:41:35;;;;;;;25.13;14.67;;;;;;;;;;5103098;28;20063;-71
2023/03/30 00:44:03;;;;;;;19.57;15.47;;;;;;;;;;5104877;28;20035;-71
2023/03/30 00:46:30;;;;;;;21.67;14.97;;;;;;;;;;5094668;28;20040;-75
2023/03/30 00:48:57;;;;;;;20.37;14.83;;;;;;;;;;5105207;28;20509;-70
2023/03/30 00:51:24;;;;;;;20.57;14.93;;;;;;;;;;5104588;28;20578;-72
2023/03/30 00:53:52;;;;;;;30.10;14.83;;;;;;;;;;5105377;28;20080;-70
2023/03/30 00:56:21;;;;;;;22.43;14.57;;;;;;;;;;5092477;28;20040;-71
2023/03/30 00:58:48;;;;;;;18.87;13.17;;;;;;;;;;5084128;28;20044;-71
2023/03/30 01:01:24;;;;;;;18.13;12.73;;;;;;;;;;5102318;27;20070;-71
2023/03/30 01:03:51;;;;;;;18.00;12.50;;;;;;;;;;5108757;28;20044;-71
2023/03/30 01:06:20;;;;;;;17.17;12.83;;;;;;;;;;5095506;28;20443;-71
2023/03/30 01:08:48;;;;;;;20.03;12.37;;;;;;;;;;5097729;28;20111;-70
2023/03/30 01:11:14;;;;;;;22.00;11.37;;;;;;;;;;5108535;28;20065;-70
2023/03/30 01:13:41;;;;;;;17.27;11.43;;;;;;;;;;5089550;28;20116;-72
2023/03/30 01:16:08;;;;;;;18.73;10.83;;;;;;;;;;5095468;28;20142;-71
2023/03/30 01:18:46;;;;;;;17.97;10.07;;;;;;;;;;5100601;28;20552;-70
2023/03/30 01:21:28;;;;;;;20.60;11.33;;;;;;;;;;5107691;28;20126;-72
2023/03/30 01:24:09;;;;;;;13.73;10.70;;;;;;;;;;5091084;28;20039;-70
2023/03/30 01:26:39;;;;;;;17.35;10.68;;;;;;;;;;5091535;28;20113;-73
2023/03/30 01:29:17;;;;;;;19.43;11.30;;;;;;;;;;5118966;27;20047;-70
2023/03/30 01:32:01;;;;;;;20.90;11.20;;;;;;;;;;5123603;27;20039;-71
2023/03/30 01:34:43;;;;;;;17.83;10.57;;;;;;;;;;5118193;27;20043;-71
2023/03/30 01:37:22;;;;;;;15.73;10.10;;;;;;;;;;5102522;27;20051;-70
2023/03/30 01:39:54;;;;;;;15.77;9.77;;;;;;;;;;5127847;27;20047;-70
2023/03/30 01:42:42;;;;;;;16.70;9.93;;;;;;;;;;5098444;27;20047;-70
2023/03/30 01:45:08;;;;;;;14.70;10.40;;;;;;;;;;5125053;27;20086;-71
2023/03/30 01:47:37;;;;;;;15.73;9.27;;;;;;;;;;5097738;27;20047;-69
2023/03/30 01:50:03;;;;;;;20.13;9.97;;;;;;;;;;5128491;27;20101;-70
2023/03/30 01:52:39;;;;;;;16.03;10.10;;;;;;;;;;5114187;27;20078;-72
2023/03/30 01:55:17;;;;;;;18.00;10.63;;;;;;;;;;5112995;27;20170;-70
2023/03/30 01:57:53;;;;;;;12.53;9.33;;;;;;;;;;5100315;27;20074;-70
2023/03/30 02:00:21;;;;;;;17.17;9.13;;;;;;;;;;5113075;27;20043;-70
2023/03/30 02:02:53;;;;;;;13.90;9.33;;;;;;;;;;5114922;27;20043;-70
2023/03/30 02:05:21;;;;;;;20.23;8.80;;;;;;;;;;5124873;27;20560;-71
2023/03/30 02:07:52;;;;;;;16.70;8.93;;;;;;;;;;5100002;27;20075;-71
2023/03/30 02:10:19;;;;;;;17.60;8.18;;;;;;;;;;5110244;27;20047;-71
2023/03/30 02:12:46;;;;;;;13.37;9.03;;;;;;;;;;5114299;27;20142;-70
2023/03/30 02:15:14;;;;;;;15.23;8.53;;;;;;;;;;5117526;27;20095;-71
2023/03/30 02:17:41;;;;;;;14.93;8.50;;;;;;;;;;5101372;27;20050;-72
2023/03/30 02:20:11;;;;;;;10.27;7.50;;;;;;;;;;5117582;27;20054;-70
2023/03/30 02:22:38;;;;;;;16.03;7.37;;;;;;;;;;5110326;28;20063;-70
2023/03/30 02:25:05;;;;;;;11.40;7.10;;;;;;;;;;5096671;28;20078;-70
2023/03/30 02:27:32;;;;;;;12.73;7.33;;;;;;;;;;5097978;28;20072;-70
2023/03/30 02:29:58;;;;;;;16.60;6.47;;;;;;;;;;5109779;28;20040;-72
2023/03/30 02:32:26;;;;;;;12.47;6.97;;;;;;;;;;5119776;28;20047;-73
2023/03/30 02:34:55;;;;;;;13.37;6.53;;;;;;;;;;5123781;28;20050;-71
2023/03/30 02:37:37;;;;;;;10.83;6.10;;;;;;;;;;5107514;28;20039;-71
2023/03/30 02:40:16;;;;;;;11.60;6.37;;;;;;;;;;5122233;28;20148;-71
2023/03/30 02:42:47;;;;;;;12.33;5.93;;;;;;;;;;5113304;28;20446;-70
2023/03/30 02:45:20;;;;;;;14.43;6.20;;;;;;;;;;5123437;28;20512;-72
2023/03/30 02:47:46;;;;;;;10.97;5.70;;;;;;;;;;5111245;27;20058;-70
2023/03/30 02:50:30;;;;;;;13.87;6.67;;;;;;;;;;5113867;27;20047;-73
2023/03/30 02:53:06;;;;;;;12.23;6.27;;;;;;;;;;5113657;27;20059;-70
2023/03/30 02:55:38;;;;;;;12.10;6.13;;;;;;;;;;5120276;27;20129;-70
2023/03/30 02:58:08;;;;;;;17.70;5.90;;;;;;;;;;5104631;27;20147;-70
2023/03/30 03:00:43;;;;;;;10.50;6.07;;;;;;;;;;5104396;28;20100;-70
2023/03/30 03:03:30;;;;;;;12.90;4.77;;;;;;;;;;5107177;28;20091;-70
2023/03/30 03:06:01;;;;;;;13.73;4.93;;;;;;;;;;5108651;28;20058;-71
2023/03/30 03:08:29;;;;;;;12.52;5.10;;;;;;;;;;5096046;28;20079;-70
2023/03/30 03:10:55;;;;;;;7.97;4.73;;;;;;;;;;5110886;28;20058;-71
2023/03/30 03:13:23;;;;;;;11.35;4.88;;;;;;;;;;5110123;28;20062;-70
2023/03/30 03:15:51;;;;;;;12.60;5.17;;;;;;;;;;5107560;27;20611;-70
2023/03/30 03:18:17;;;;;;;12.63;4.60;;;;;;;;;;5092272;27;20121;-70
2023/03/30 03:20:43;;;;;;;9.63;4.50;;;;;;;;;;5108991;28;20048;-71
2023/03/30 03:23:11;;;;;;;11.25;4.65;;;;;;;;;;5103906;28;20107;-70
2023/03/30 03:25:37;;;;;;;13.00;4.50;;;;;;;;;;5086807;28;20603;-70
2023/03/30 03:28:03;;;;;;;14.27;5.13;;;;;;;;;;5096143;28;20047;-71
2023/03/30 03:30:29;;;;;;;12.30;5.07;;;;;;;;;;5111261;28;20044;-70
2023/03/30 03:32:55;;;;;;;9.17;4.43;;;;;;;;;;5110208;28;20082;-71
2023/03/30 03:35:21;;;;;;;15.70;5.20;;;;;;;;;;5086980;28;20059;-71
2023/03/30 03:37:47;;;;;;;12.07;5.10;;;;;;;;;;5092121;28;20516;-71
2023/03/30 03:40:14;;;;;;;14.07;4.70;;;;;;;;;;5111291;28;20048;-70
2023/03/30 03:42:40;;;;;;;10.73;4.83;;;;;;;;;;5084346;28;20489;-70
2023/03/30 03:45:06;;;;;;;10.70;4.77;;;;;;;;;;5112763;27;20509;-70
2023/03/30 03:47:33;;;;;;;11.37;4.40;;;;;;;;;;5090934;28;20047;-70
2023/03/30 03:50:03;;;;;;;12.63;4.40;;;;;;;;;;5110933;28;20044;-70
2023/03/30 03:52:30;;;;;;;15.38;4.82;;;;;;;;;;5100245;28;20393;-70
2023/03/30 03:54:56;;;;;;;16.23;4.50;;;;;;;;;;5088522;28;20134;-70
2023/03/30 03:57:25;;;;;;;16.33;5.30;;;;;;;;;;5092897;28;20075;-70
2023/03/30 03:59:52;;;;;;;13.80;5.15;;;;;;;;;;5088474;28;20077;-70
2023/03/30 04:02:18;;;;;;;13.57;4.85;;;;;;;;;;5085944;27;20058;-70
2023/03/30 04:04:44;;;;;;;13.00;5.05;;;;;;;;;;5103146;28;20067;-72
2023/03/30 04:07:10;;;;;;;17.35;5.35;;;;;;;;;;5064342;28;20517;-70
2023/03/30 04:09:37;;;;;;;11.90;4.80;;;;;;;;;;5105038;28;20062;-70
2023/03/30 04:12:03;;;;;;;15.57;4.45;;;;;;;;;;5107787;28;20044;-71
2023/03/30 04:14:29;;;;;;;15.93;5.32;;;;;;;;;;5105767;27;20047;-70
2023/03/30 04:16:56;;;;;;;13.82;4.95;;;;;;;;;;5095241;28;20066;-71
2023/03/30 04:19:24;;;;;;;18.13;5.40;;;;;;;;;;5108806;28;20054;-71
2023/03/30 04:21:51;;;;;;;12.80;4.85;;;;;;;;;;5084474;28;20137;-70
2023/03/30 04:24:17;;;;;;;17.50;4.35;;;;;;;;;;5105217;28;20149;-71
2023/03/30 04:26:47;;;;;;;12.77;4.68;;;;;;;;;;5094334;28;20054;-71
2023/03/30 04:29:15;;;;;;;11.83;4.37;;;;;;;;;;5108088;27;20216;-70
2023/03/30 04:31:45;;;;;;;13.40;4.17;;;;;;;;;;5110782;28;20075;-71
2023/03/30 04:34:12;;;;;;;11.80;4.17;;;;;;;;;;5102217;28;20044;-71
2023/03/30 04:36:42;;;;;;;13.07;4.50;;;;;;;;;;5096092;28;20085;-71
2023/03/30 04:39:10;;;;;;;13.70;3.40;;;;;;;;;;5108190;28;20044;-70
2023/03/30 04:41:36;;;;;;;13.43;4.23;;;;;;;;;;5102367;28;20048;-70
2023/03/30 04:44:06;;;;;;;9.60;3.60;;;;;;;;;;5105216;28;20047;-70
2023/03/30 04:46:32;;;;;;;14.53;3.50;;;;;;;;;;5089013;28;20059;-72
2023/03/30 04:48:59;;;;;;;10.90;3.70;;;;;;;;;;5107928;28;20052;-70
2023/03/30 04:51:25;;;;;;;14.83;3.77;;;;;;;;;;5099118;28;20048;-70
2023/03/30 04:53:51;;;;;;;12.23;3.77;;;;;;;;;;5107902;28;20134;-71
2023/03/30 04:56:18;;;;;;;11.00;3.53;;;;;;;;;;5091402;28;20048;-70
2023/03/30 04:58:44;;;;;;;11.37;3.77;;;;;;;;;;5091863;28;20050;-70
2023/03/30 05:01:10;;;;;;;11.07;3.65;;;;;;;;;;5111583;27;20047;-72
2023/03/30 05:03:36;;;;;;;15.27;3.57;;;;;;;;;;5101053;28;20439;-70
2023/03/30 05:06:02;;;;;;;12.90;3.50;;;;;;;;;;5102181;28;20482;-70
2023/03/30 05:08:29;;;;;;;14.43;3.77;;;;;;;;;;5077538;28;20032;-70
2023/03/30 05:10:57;;;;;;;13.47;3.53;;;;;;;;;;5103244;28;20055;-70
2023/03/30 05:13:23;;;;;;;12.87;4.00;;;;;;;;;;5104124;28;20051;-72
2023/03/30 05:15:53;;;;;;;15.33;4.07;;;;;;;;;;5098681;28;20036;-70
2023/03/30 05:18:19;;;;;;;14.07;3.97;;;;;;;;;;5092351;27;20090;-70
2023/03/30 05:20:48;;;;;;;17.83;4.63;;;;;;;;;;5111872;27;20048;-70
2023/03/30 05:23:14;;;;;;;13.37;4.03;;;;;;;;;;5109748;28;20062;-71
2023/03/30 05:25:47;;;;;;;14.63;3.93;;;;;;;;;;5109545;28;20105;-70
2023/03/30 05:28:15;;;;;;;14.43;4.13;;;;;;;;;;5075692;28;20068;-70
2023/03/30 05:30:41;;;;;;;20.47;4.27;;;;;;;;;;5126198;27;20438;-70
2023/03/30 05:33:08;;;;;;;15.60;4.20;;;;;;;;;;5090966;28;20047;-70
2023/03/30 05:35:35;;;;;;;12.75;4.00;;;;;;;;;;5090749;28;20132;-71
2023/03/30 05:38:02;;;;;;;15.63;4.00;;;;;;;;;;5063391;28;20551;-70
2023/03/30 05:40:29;;;;;;;11.75;3.75;;;;;;;;;;5092350;28;20528;-70
2023/03/30 05:42:55;;;;;;;15.88;4.28;;;;;;;;;;5097463;28;20054;-70
2023/03/30 05:45:21;;;;;;;17.40;4.33;;;;;;;;;;5109903;28;20042;-70
2023/03/30 05:47:47;;;;;;;20.65;4.82;;;;;;;;;;5080956;28;20052;-70
2023/03/30 05:50:13;;;;;;;11.55;4.13;;;;;;;;;;5107687;28;20055;-70
2023/03/30 05:52:40;;;;;;;17.53;4.27;;;;;;;;;;5108486;28;20043;-70
2023/03/30 05:55:06;;;;;;;13.30;3.90;;;;;;;;;;5094190;28;20106;-70
2023/03/30 05:57:32;;;;;;;18.90;4.80;;;;;;;;;;5093478;28;20109;-70
2023/03/30 05:59:59;;;;;;;18.10;3.97;;;;;;;;;;5100473;28;20062;-70
2023/03/30 06:02:26;;;;;;;14.70;4.43;;;;;;;;;;5081312;28;20047;-71
2023/03/30 06:04:52;;;;;;;16.35;4.35;;;;;;;;;;5100578;28;20506;-71
2023/03/30 06:07:19;;;;;;;19.90;4.87;;;;;;;;;;5079502;28;20062;-70
2023/03/30 06:09:46;;;;;;;14.50;4.23;;;;;;;;;;5062551;28;20116;-71
2023/03/30 06:12:12;;;;;;;14.48;4.15;;;;;;;;;;5094077;28;20054;-72
2023/03/30 06:14:38;;;;;;;13.77;4.37;;;;;;;;;;5107092;27;20044;-70
2023/03/30 06:17:04;;;;;;;13.63;4.38;;;;;;;;;;5078900;28;20307;-70
2023/03/30 06:19:30;;;;;;;17.70;4.30;;;;;;;;;;5099540;28;20130;-70
2023/03/30 06:21:56;;;;;;;15.17;4.60;;;;;;;;;;5101595;28;20055;-71
2023/03/30 06:24:22;;;;;;;14.23;4.50;;;;;;;;;;5094359;28;20054;-71
2023/03/30 06:26:48;;;;;;;15.73;4.60;;;;;;;;;;5068109;28;20059;-71
2023/03/30 06:29:14;;;;;;;12.93;4.27;;;;;;;;;;5102172;28;20514;-71
2023/03/30 06:31:40;;;;;;;18.83;4.70;;;;;;;;;;5102135;28;20055;-70
2023/03/30 06:34:06;;;;;;;12.55;4.97;;;;;;;;;;5103551;28;20629;-71
2023/03/30 06:36:32;;;;;;;14.20;4.57;;;;;;;;;;5094573;28;20052;-71
2023/03/30 06:38:58;;;;;;;19.58;5.00;;;;;;;;;;5088675;28;20136;-70
2023/03/30 06:41:25;;;;;;;16.25;4.40;;;;;;;;;;5106042;28;20039;-71
2023/03/30 06:43:51;;;;;;;13.43;4.30;;;;;;;;;;5111330;28;20043;-71
2023/03/30 06:46:17;;;;;;;19.60;4.57;;;;;;;;;;5102176;27;20111;-70
2023/03/30 06:48:43;;;;;;;16.65;4.53;;;;;;;;;;5106286;28;20039;-70
2023/03/30 06:51:11;;;;;;;16.38;4.72;;;;;;;;;;5118841;28;20104;-71
2023/03/30 06:53:37;;;;;;;14.98;4.53;;;;;;;;;;5116522;28;20040;-70
2023/03/30 06:56:04;;;;;;;15.95;4.30;;;;;;;;;;5115275;28;20564;-71
2023/03/30 06:58:32;;;;;;;16.02;4.20;;;;;;;;;;5085216;28;20059;-70
2023/03/30 07:00:58;;;;;;;14.40;4.15;;;;;;;;;;5113298;28;20449;-70
2023/03/30 07:03:25;;;;;;;16.20;4.20;;;;;;;;;;5107977;28;20130;-70
2023/03/30 07:05:51;;;;;;;15.38;4.03;;;;;;;;;;5101858;28;20546;-71
2023/03/30 07:08:18;;;;;;;14.63;4.40;;;;;;;;;;5091742;28;20116;-71
2023/03/30 07:10:46;;;;;;;20.17;4.85;;;;;;;;;;5106188;28;20465;-71
2023/03/30 07:13:12;;;;;;;21.77;5.00;;;;;;;;;;5075920;28;20048;-71
2023/03/30 07:15:38;;;;;;;17.65;4.85;;;;;;;;;;5092474;28;20071;-70
2023/03/30 07:18:04;;;;;;;20.80;5.07;;;;;;;;;;5083001;28;20074;-70
2023/03/30 07:20:30;;;;;;;21.48;4.82;;;;;;;;;;5097982;28;20162;-73
2023/03/30 07:22:56;;;;;;;19.30;4.20;;;;;;;;;;5095330;28;20096;-71
2023/03/30 07:25:22;;;;;;;18.42;4.80;;;;;;;;;;5096215;28;20067;-71
2023/03/30 07:27:48;;;;;;;25.42;5.82;;;;;;;;;;5080296;28;20173;-70
2023/03/30 07:30:14;;;;;;;21.35;5.10;;;;;;;;;;5096527;28;20055;-71
2023/03/30 07:32:40;;;;;;;23.77;5.35;;;;;;;;;;5111210;27;20066;-72
2023/03/30 07:35:07;;;;;;;24.70;5.80;;;;;;;;;;5102015;27;20100;-71
2023/03/30 07:37:36;;;;;;;23.33;5.87;;;;;;;;;;5085005;28;20138;-73
2023/03/30 07:40:06;;;;;;;25.98;5.38;;;;;;;;;;5080826;27;20079;-70
2023/03/30 07:42:32;;;;;;;26.30;5.63;;;;;;;;;;5099909;28;20150;-71
2023/03/30 07:44:58;;;;;;;27.55;5.53;;;;;;;;;;5098473;28;20096;-70
2023/03/30 07:47:25;;;;;;;22.13;6.32;;;;;;;;;;5087198;27;20059;-74
2023/03/30 07:49:51;;;;;;;27.80;6.70;;;;;;;;;;5099012;27;20059;-71
2023/03/30 07:52:17;;;;;;;27.90;6.22;;;;;;;;;;5099784;27;20078;-71
2023/03/30 07:54:44;;;;;;;23.40;6.13;;;;;;;;;;5099311;28;20083;-71
2023/03/30 07:57:10;;;;;;;32.27;6.53;;;;;;;;;;5084084;28;20056;-71
2023/03/30 07:59:36;;;;;;;30.53;7.13;;;;;;;;;;5063497;28;20055;-71
2023/03/30 08:02:03;;;;;;;31.07;6.40;;;;;;;;;;5098895;27;20071;-73
2023/03/30 08:04:30;;;;;;;24.90;6.55;;;;;;;;;;5100606;27;20555;-72
2023/03/30 08:06:56;;;;;;;28.43;7.00;;;;;;;;;;5084197;27;20489;-74
2023/03/30 08:09:22;;;;;;;30.37;7.30;;;;;;;;;;5097547;28;20046;-70
2023/03/30 08:11:49;;;;;;;32.87;7.50;;;;;;;;;;5098999;28;20044;-72
2023/03/30 08:14:15;;;;;;;35.83;7.20;;;;;;;;;;5096351;27;20055;-73
2023/03/30 08:16:41;;;;;;;31.37;7.07;;;;;;;;;;5084764;27;20490;-71
2023/03/30 08:19:07;;;;;;;34.57;7.40;;;;;;;;;;5099520;28;20056;-71
2023/03/30 08:21:34;;;;;;;28.07;6.57;;;;;;;;;;5098802;28;20962;-70
2023/03/30 08:24:00;;;;;;;33.03;6.93;;;;;;;;;;5097836;28;20134;-72
2023/03/30 08:26:27;;;;;;;33.53;7.90;;;;;;;;;;5086563;28;20558;-70
2023/03/30 08:28:53;;;;;;;28.17;6.73;;;;;;;;;;5095302;28;20494;-70
2023/03/30 08:31:19;;;;;;;37.63;7.70;;;;;;;;;;5100547;27;20055;-72
2023/03/30 08:33:46;;;;;;;29.87;7.40;;;;;;;;;;5098084;28;20055;-74
2023/03/30 08:36:12;;;;;;;33.43;7.57;;;;;;;;;;5089783;28;20541;-73
2023/03/30 08:38:38;;;;;;;35.07;7.77;;;;;;;;;;5093465;28;20167;-70
2023/03/30 08:41:23;;;;;;;32.27;7.57;;;;;;;;;;5098757;27;20453;-72
2023/03/30 08:43:55;;;;;;;31.27;7.50;;;;;;;;;;5078388;28;20580;-70
2023/03/30 08:46:21;;;;;;;35.53;8.43;;;;;;;;;;5085980;28;20043;-74
2023/03/30 08:48:48;;;;;;;28.57;7.43;;;;;;;;;;5093757;27;20170;-70
2023/03/30 08:51:31;;;;;;;33.07;8.47;;;;;;;;;;5099174;28;20043;-70
2023/03/30 08:54:00;;;;;;;30.43;7.03;;;;;;;;;;5092401;28;20382;-71
2023/03/30 08:56:28;;;;;;;32.87;8.40;;;;;;;;;;5086188;28;20777;-70
2023/03/30 08:59:03;;;;;;;36.60;7.47;;;;;;;;;;5098059;27;20424;-71
2023/03/30 09:01:33;;;;;;;39.67;8.57;;;;;;;;;;5098106;27;20059;-70
2023/03/30 09:04:16;;;;;;;38.72;8.20;;;;;;;;;;5094619;27;20437;-70
2023/03/30 09:07:11;;;;;;;38.28;8.98;;;;;;;;;;5088109;27;20055;-73
2023/03/30 09:09:42;;;;;;;35.58;8.02;;;;;;;;;;5081757;27;20059;-73
2023/03/30 09:12:13;;;;;;;38.13;8.13;;;;;;;;;;5098133;28;20139;-72
2023/03/30 09:14:41;;;;;;;35.92;7.72;;;;;;;;;;5103105;27;20439;-70
2023/03/30 09:17:17;;;;;;;34.15;8.80;;;;;;;;;;5093475;27;20064;-71
2023/03/30 09:19:49;;;;;;;27.40;7.18;;;;;;;;;;5098946;27;20124;-70
2023/03/30 09:22:17;;;;;;;34.72;7.45;;;;;;;;;;5117244;27;20047;-70
2023/03/30 09:24:43;;;;;;;28.67;7.55;;;;;;;;;;5110160;27;20203;-71
2023/03/30 09:27:24;;;;;;;31.33;7.25;;;;;;;;;;5081271;28;20094;-70
2023/03/30 09:29:52;;;;;;;31.10;6.80;;;;;;;;;;5097615;27;20482;-70
2023/03/30 09:32:24;;;;;;;27.27;6.53;;;;;;;;;;5112337;27;20051;-72
2023/03/30 09:34:58;;;;;;;30.70;6.90;;;;;;;;;;5101813;27;20047;-74
2023/03/30 09:37:26;;;;;;;22.63;6.80;;;;;;;;;;5097465;27;20158;-74
2023/03/30 09:39:52;;;;;;;34.22;7.47;;;;;;;;;;5085475;27;20394;-70
2023/03/30 09:42:33;;;;;;;26.80;6.53;;;;;;;;;;5105326;27;20087;-70
2023/03/30 09:45:02;;;;;;;32.42;6.55;;;;;;;;;;5097660;27;20075;-74
2023/03/30 09:47:34;;;;;;;31.02;6.55;;;;;;;;;;5073520;27;20043;-70
2023/03/30 09:50:13;;;;;;;25.05;6.10;;;;;;;;;;5114107;27;20078;-72
2023/03/30 09:52:40;;;;;;;24.88;5.15;;;;;;;;;;5097275;27;20203;-70
2023/03/30 09:55:21;;;;;;;22.95;6.05;;;;;;;;;;5115587;27;20058;-71
2023/03/30 09:57:51;;;;;;;24.02;5.50;;;;;;;;;;5080048;28;20724;-71
2023/03/30 10:00:23;;;;;;;25.58;6.13;;;;;;;;;;5080124;28;20055;-74
2023/03/30 10:02:59;;;;;;;27.35;6.32;;;;;;;;;;5102963;27;20059;-70
2023/03/30 10:05:26;;;;;;;30.75;5.97;;;;;;;;;;5108363;27;20052;-70
2023/03/30 10:08:03;;;;;;;29.33;6.85;;;;;;;;;;5101640;27;20055;-70
2023/03/30 10:10:36;;;;;;;29.13;5.65;;;;;;;;;;5104509;27;20072;-70
2023/03/30 10:13:13;;;;;;;27.38;5.45;;;;;;;;;;5095840;27;20047;-71
2023/03/30 10:15:42;;;;;;;27.55;5.85;;;;;;;;;;5112925;27;20053;-72
2023/03/30 10:18:29;;;;;;;23.55;5.82;;;;;;;;;;5099721;27;20047;-71
2023/03/30 10:21:03;;;;;;;28.05;5.53;;;;;;;;;;5115766;27;20055;-69
2023/03/30 10:23:32;;;;;;;21.75;4.97;;;;;;;;;;5116890;27;20058;-71
2023/03/30 10:26:02;;;;;;;21.80;5.40;;;;;;;;;;5101038;28;20062;-70
2023/03/30 10:28:30;;;;;;;25.83;5.13;;;;;;;;;;5095992;27;20059;-70
2023/03/30 10:31:12;;;;;;;27.52;5.82;;;;;;;;;;5103517;28;20047;-75
2023/03/30 10:33:40;;;;;;;23.58;5.22;;;;;;;;;;5096979;28;20044;-70
2023/03/30 10:36:06;;;;;;;23.88;5.65;;;;;;;;;;5104206;28;20082;-75
2023/03/30 10:38:33;;;;;;;31.83;6.75;;;;;;;;;;5081412;28;20489;-73
2023/03/30 10:41:21;;;;;;;26.75;6.18;;;;;;;;;;5104031;28;20058;-71
2023/03/30 10:43:48;;;;;;;33.33;6.20;;;;;;;;;;5100624;27;20424;-71
2023/03/30 10:46:21;;;;;;;26.42;6.47;;;;;;;;;;5087026;28;20436;-71
2023/03/30 10:48:59;;;;;;;23.92;6.30;;;;;;;;;;5100806;28;20043;-72
2023/03/30 10:51:41;;;;;;;32.28;7.22;;;;;;;;;;5081085;28;20067;-70
2023/03/30 10:54:19;;;;;;;32.63;7.70;;;;;;;;;;5103953;28;20572;-70
2023/03/30 10:56:54;;;;;;;33.53;7.13;;;;;;;;;;5089672;28;20058;-70
2023/03/30 10:59:38;;;;;;;30.55;7.25;;;;;;;;;;5097275;28;20946;-71
2023/03/30 11:02:20;;;;;;;28.65;6.65;;;;;;;;;;5101156;27;20154;-73
2023/03/30 11:04:48;;;;;;;26.30;6.60;;;;;;;;;;5095637;27;20071;-71
2023/03/30 11:07:34;;;;;;;26.25;6.78;;;;;;;;;;5081833;27;20039;-73
2023/03/30 11:10:05;;;;;;;28.67;6.28;;;;;;;;;;5102832;27;20142;-74
2023/03/30 11:12:38;;;;;;;30.88;7.35;;;;;;;;;;5084627;28;20059;-71
2023/03/30 11:15:25;;;;;;;31.92;7.55;;;;;;;;;;5102886;27;20063;-72
2023/03/30 11:17:55;;;;;;;27.20;7.00;;;;;;;;;;5076412;27;20529;-70
2023/03/30 11:20:26;;;;;;;30.10;6.78;;;;;;;;;;5100252;27;20052;-71
2023/03/30 11:22:59;;;;;;;33.20;6.93;;;;;;;;;;5100848;27;20040;-71
2023/03/30 11:25:27;;;;;;;30.20;6.80;;;;;;;;;;5101435;27;20194;-72
2023/03/30 11:27:55;;;;;;;31.00;6.78;;;;;;;;;;5090534;27;20482;-70
2023/03/30 11:30:24;;;;;;;24.15;6.40;;;;;;;;;;5110328;27;20105;-71
2023/03/30 11:32:50;;;;;;;26.63;6.57;;;;;;;;;;5109342;27;20129;-73
2023/03/30 11:35:19;;;;;;;26.05;6.68;;;;;;;;;;5101742;27;20429;-71
2023/03/30 11:38:04;;;;;;;32.70;6.93;;;;;;;;;;5086167;27;20086;-72
2023/03/30 11:40:45;;;;;;;32.45;7.15;;;;;;;;;;5100577;27;20051;-71
2023/03/30 11:43:22;;;;;;;27.73;6.68;;;;;;;;;;5099575;27;20082;-71
2023/03/30 11:45:51;;;;;;;22.80;6.28;;;;;;;;;;5108309;27;20390;-73
2023/03/30 11:48:23;;;;;;;30.15;6.78;;;;;;;;;;5083936;27;20130;-70
2023/03/30 11:50:52;;;;;;;29.83;6.75;;;;;;;;;;5099319;27;20825;-71
2023/03/30 11:53:23;;;;;;;28.88;6.22;;;;;;;;;;5100230;27;20078;-71
2023/03/30 11:56:06;;;;;;;29.58;7.10;;;;;;;;;;5099212;27;20146;-71
2023/03/30 11:58:41;;;;;;;26.92;6.63;;;;;;;;;;5091176;27;20108;-74
2023/03/30 12:01:40;;;;;;;24.40;6.10;;;;;;;;;;5111154;27;20052;-70
2023/03/30 12:04:08;;;;;;;25.05;6.35;;;;;;;;;;5078472;27;20066;-70
2023/03/30 12:06:34;;;;;;;30.38;5.70;;;;;;;;;;5085247;27;20047;-74
2023/03/30 12:09:09;;;;;;;29.73;6.07;;;;;;;;;;5100539;27;20165;-72
2023/03/30 12:11:44;;;;;;;29.63;6.45;;;;;;;;;;5098852;27;20044;-71
2023/03/30 12:14:34;;;;;;;29.67;6.55;;;;;;;;;;5108067;27;20138;-70
2023/03/30 12:17:13;;;;;;;37.10;7.60;;;;;;;;;;5084273;27;20582;-70
2023/03/30 12:19:59;;;;;;;24.85;6.20;;;;;;;;;;5101281;27;20055;-72
2023/03/30 12:22:31;;;;;;;27.40;6.40;;;;;;;;;;5067305;27;20437;-71
2023/03/30 12:25:13;;;;;;;28.95;6.35;;;;;;;;;;5101658;27;20048;-71
2023/03/30 12:27:58;;;;;;;27.60;6.28;;;;;;;;;;5084491;27;20067;-71
2023/03/30 12:30:25;;;;;;;28.77;6.63;;;;;;;;;;5107058;27;20061;-74
2023/03/30 12:33:12;;;;;;;31.75;6.05;;;;;;;;;;5113141;27;20072;-71
2023/03/30 12:35:51;;;;;;;22.60;5.82;;;;;;;;;;5100725;27;20443;-72
2023/03/30 12:38:22;;;;;;;29.73;6.70;;;;;;;;;;5093033;27;20157;-73
2023/03/30 12:40:53;;;;;;;28.20;6.17;;;;;;;;;;5099318;27;20126;-70
2023/03/30 12:43:52;;;;;;;31.35;6.28;;;;;;;;;;5099140;27;20728;-70
2023/03/30 12:46:19;;;;;;;28.52;6.75;;;;;;;;;;5046165;27;20135;-70
2023/03/30 12:49:03;;;;;;;30.73;7.53;;;;;;;;;;5096606;27;20055;-71
2023/03/30 12:51:48;;;;;;;27.42;6.63;;;;;;;;;;5109044;27;20792;-71
2023/03/30 12:54:22;;;;;;;30.98;6.82;;;;;;;;;;5111852;27;20416;-71
2023/03/30 12:57:06;;;;;;;32.53;6.97;;;;;;;;;;5088910;27;20058;-74
2023/03/30 12:59:51;;;;;;;32.08;6.45;;;;;;;;;;5098123;27;20440;-71
2023/03/30 13:02:26;;;;;;;30.38;7.00;;;;;;;;;;5098829;27;20059;-72
2023/03/30 13:04:52;;;;;;;28.85;7.15;;;;;;;;;;5102212;27;20048;-70
2023/03/30 13:07:27;;;;;;;26.35;6.20;;;;;;;;;;5081591;28;20174;-71
2023/03/30 13:09:58;;;;;;;26.70;6.18;;;;;;;;;;5085301;27;20388;-73
2023/03/30 13:12:27;;;;;;;28.95;6.47;;;;;;;;;;5068956;27;20645;-71
2023/03/30 13:15:22;;;;;;;31.20;6.70;;;;;;;;;;5099585;27;20047;-72
2023/03/30 13:17:56;;;;;;;27.05;6.55;;;;;;;;;;5069878;27;20043;-71
2023/03/30 13:20:32;;;;;;;28.85;7.05;;;;;;;;;;5106070;27;20104;-72
2023/03/30 13:23:05;;;;;;;31.80;6.85;;;;;;;;;;5092601;27;20063;-71
2023/03/30 13:26:06;;;;;;;27.95;6.90;;;;;;;;;;5102539;27;20058;-70
2023/03/30 13:28:53;;;;;;;34.58;8.85;;;;;;;;;;5017099;28;20704;-71
2023/03/30 13:31:38;;;;;;;31.58;7.90;;;;;;;;;;5093161;27;20063;-73
2023/03/30 13:34:12;;;;;;;26.48;7.15;;;;;;;;;;5096453;28;21297;-70
2023/03/30 13:36:47;;;;;;;29.25;6.93;;;;;;;;;;5086268;27;20044;-70
2023/03/30 13:39:18;;;;;;;30.58;7.32;;;;;;;;;;5107664;27;20047;-71
2023/03/30 13:42:03;;;;;;;25.73;6.53;;;;;;;;;;5106053;27;20073;-71
2023/03/30 13:44:47;;;;;;;31.73;7.10;;;;;;;;;;5104841;27;20047;-73
2023/03/30 13:47:32;;;;;;;28.17;7.15;;;;;;;;;;5086374;27;20040;-71
2023/03/30 13:49:59;;;;;;;32.35;7.32;;;;;;;;;;5103376;27;20421;-70
2023/03/30 13:52:45;;;;;;;27.17;6.72;;;;;;;;;;5096413;28;20055;-71
2023/03/30 13:55:20;;;;;;;32.65;6.93;;;;;;;;;;5096268;27;20061;-74
2023/03/30 13:57:47;;;;;;;27.48;7.07;;;;;;;;;;5082485;27;20108;-71
2023/03/30 14:00:38;;;;;;;30.90;7.03;;;;;;;;;;5097150;27;20055;-73
2023/03/30 14:03:23;;;;;;;32.80;7.47;;;;;;;;;;5112768;27;20057;-74
2023/03/30 14:05:51;;;;;;;33.08;6.85;;;;;;;;;;5099697;27;20397;-73
2023/03/30 14:08:18;;;;;;;33.83;7.43;;;;;;;;;;5082772;27;20059;-70
2023/03/30 14:10:48;;;;;;;35.10;7.00;;;;;;;;;;5096639;27;20820;-71
2023/03/30 14:13:15;;;;;;;26.27;6.22;;;;;;;;;;5095909;28;20501;-71
2023/03/30 14:15:41;;;;;;;34.53;8.27;;;;;;;;;;5102428;27;20048;-75
2023/03/30 14:18:10;;;;;;;33.83;7.90;;;;;;;;;;5075009;27;20507;-70
2023/03/30 14:20:47;;;;;;;32.78;7.68;;;;;;;;;;5102356;27;20063;-72
2023/03/30 14:23:18;;;;;;;35.78;8.45;;;;;;;;;;5096083;28;20056;-71
2023/03/30 14:25:45;;;;;;;37.05;8.90;;;;;;;;;;5091778;28;20055;-71
2023/03/30 14:28:14;;;;;;;34.25;8.63;;;;;;;;;;5097818;27;20492;-71
2023/03/30 14:30:47;;;;;;;30.95;7.57;;;;;;;;;;5098406;28;20059;-74
2023/03/30 14:33:13;;;;;;;31.45;8.32;;;;;;;;;;5112568;27;20450;-72
2023/03/30 14:35:44;;;;;;;35.90;7.38;;;;;;;;;;5095481;28;20811;-72
2023/03/30 14:38:15;;;;;;;28.83;7.50;;;;;;;;;;5093686;28;20424;-73
2023/03/30 14:40:41;;;;;;;31.50;7.80;;;;;;;;;;5098270;28;20117;-72
2023/03/30 14:43:12;;;;;;;28.98;7.65;;;;;;;;;;5098967;28;20067;-72
2023/03/30 14:45:38;;;;;;;37.00;7.80;;;;;;;;;;5107815;27;20497;-70
2023/03/30 14:48:04;;;;;;;34.25;7.97;;;;;;;;;;5093854;27;20399;-73
2023/03/30 14:50:30;;;;;;;40.55;7.85;;;;;;;;;;5102831;27;20062;-71